NCAR-RAP Real-Time Weather Data

Output produced by METARs form (06 May 2021  14:58 UTC)
found at http://weather.rap.ucar.edu/surface/
 
KANB 061353Z AUTO 36006KT 10SM CLR 17/08 A3016 RMK AO2 SLP209 T01670083
KANB 061253Z AUTO 00000KT 10SM CLR 14/09 A3014 RMK AO2 SLP206 T01390094
KANB 061153Z AUTO 21004KT 10SM CLR 11/09 A3014 RMK AO2 SLP206 T01110094 10150 20100 53019
KANB 061053Z AUTO 00000KT 8SM CLR 10/09 A3012 RMK AO2 SLP197 T01000089
KANB 060953Z AUTO 00000KT 9SM CLR 11/09 A3011 RMK AO2 SLP195 T01060089
KANB 060853Z AUTO 00000KT 10SM CLR 12/09 A3009 RMK AO2 SLP185 T01170094 55000
KANB 060753Z AUTO 00000KT 10SM CLR 13/09 A3008 RMK AO2 SLP183 T01330094
KANB 060653Z AUTO VRB03KT 10SM CLR 13/10 A3009 RMK AO2 SLP184 T01330100
KANB 060553Z AUTO 00000KT 10SM CLR 15/11 A3009 RMK AO2 SLP185 T01500106 10211 20150 402440150 50000
KANB 060453Z AUTO VRB05KT 10SM FEW046 16/11 A3010 RMK AO2 SLP188 T01560111
KANB 060353Z AUTO 03007KT 010V090 10SM OVC046 17/12 A3010 RMK AO2 SLP187 T01720122
KANB 060253Z AUTO 02007KT 10SM CLR 18/13 A3009 RMK AO2 SLP186 T01780128 53018
KANB 060153Z AUTO 34009G14KT 10SM FEW055 19/13 A3006 RMK AO2 SLP176 T01940133
KANB 060053Z AUTO 00000KT 10SM FEW060 19/14 A3005 RMK AO2 SLP172 T01890144